Time;durP1;ratioP1;P1;durP2;ratioP2;P2;SDS_P1;SDS_P2;PMS_P1;PMS_P2;Temp;Humidity;BMP_temperature;BMP_pressure;BME280_temperature;BME280_humidity;BME280_pressure;Samples;Min_cycle;Max_cycle;Signal;HPM_P1;HPM_P2
2023/10/26 00:01:33;;;;;;;0.87;0.60;;;10.60;99.90;;;;;;4993999;28;20208;-33
2023/10/26 00:03:59;;;;;;;0.93;0.60;;;10.60;99.90;;;;;;4974441;28;20183;-33
2023/10/26 00:06:25;;;;;;;2.80;1.00;;;10.70;99.90;;;;;;4992092;28;20290;-34
2023/10/26 00:08:51;;;;;;;1.47;0.70;;;10.70;99.90;;;;;;4976951;28;20236;-33
2023/10/26 00:11:17;;;;;;;1.00;0.70;;;10.70;99.90;;;;;;4977616;28;20210;-33
2023/10/26 00:13:43;;;;;;;2.60;0.73;;;10.70;99.90;;;;;;4977531;28;20177;-33
2023/10/26 00:16:08;;;;;;;1.33;0.77;;;10.70;99.90;;;;;;4994099;28;20209;-33
2023/10/26 00:18:34;;;;;;;0.87;0.60;;;10.70;99.90;;;;;;4994107;28;20235;-33
2023/10/26 00:21:01;;;;;;;3.90;0.80;;;10.70;99.90;;;;;;4993499;28;20208;-33
2023/10/26 00:23:27;;;;;;;1.20;0.77;;;10.70;99.90;;;;;;4992671;28;20193;-33
2023/10/26 00:25:53;;;;;;;0.97;0.83;;;10.70;99.90;;;;;;4993657;28;20208;-33
2023/10/26 00:28:20;;;;;;;1.13;0.70;;;10.70;99.90;;;;;;4977751;28;20189;-33
2023/10/26 00:30:46;;;;;;;2.67;0.70;;;10.70;99.90;;;;;;4974479;28;20171;-33
2023/10/26 00:33:12;;;;;;;0.97;0.70;;;10.60;99.90;;;;;;4993852;28;20271;-33
2023/10/26 00:35:38;;;;;;;2.67;1.10;;;10.60;99.90;;;;;;4993980;28;20199;-33
2023/10/26 00:38:05;;;;;;;2.80;1.20;;;10.60;99.90;;;;;;5021070;28;20189;-34
2023/10/26 00:40:30;;;;;;;2.90;0.87;;;10.60;99.90;;;;;;4973042;28;20297;-33
2023/10/26 00:43:00;;;;;;;1.67;0.80;;;10.50;99.90;;;;;;4993665;28;20219;-33
2023/10/26 00:45:33;;;;;;;3.13;1.10;;;10.50;99.90;;;;;;4993895;28;20205;-33
2023/10/26 00:48:00;;;;;;;1.27;0.70;;;10.50;99.90;;;;;;4974267;28;20232;-33
2023/10/26 00:50:26;;;;;;;1.23;0.97;;;10.50;99.90;;;;;;5007208;28;20188;-33
2023/10/26 00:52:53;;;;;;;1.40;0.80;;;10.40;99.90;;;;;;5021659;28;20204;-34
2023/10/26 00:55:20;;;;;;;1.83;1.07;;;10.40;99.90;;;;;;4977882;28;20187;-33
2023/10/26 00:57:47;;;;;;;1.27;0.73;;;10.40;99.90;;;;;;4977375;28;20227;-33
2023/10/26 01:00:13;;;;;;;2.40;1.00;;;10.40;99.90;;;;;;4974069;28;20292;-33
2023/10/26 01:02:40;;;;;;;2.27;1.17;;;10.40;99.90;;;;;;4993089;28;20220;-32
2023/10/26 01:05:06;;;;;;;2.70;1.40;;;10.40;99.90;;;;;;4971297;28;20194;-32
2023/10/26 01:07:32;;;;;;;2.00;1.33;;;10.30;99.90;;;;;;5008160;28;20182;-32
2023/10/26 01:09:58;;;;;;;1.60;0.90;;;10.40;99.90;;;;;;4976539;28;20208;-32
2023/10/26 01:12:25;;;;;;;1.93;0.87;;;10.30;99.90;;;;;;4976311;28;20209;-33
2023/10/26 01:14:53;;;;;;;1.40;0.50;;;10.30;99.90;;;;;;4993726;28;20185;-32
2023/10/26 01:17:19;;;;;;;3.03;0.80;;;10.30;99.90;;;;;;4977602;28;20193;-31
2023/10/26 01:19:48;;;;;;;1.87;0.90;;;10.30;99.90;;;;;;4973844;28;20189;-32
2023/10/26 01:22:13;;;;;;;2.93;0.90;;;10.30;99.90;;;;;;5009099;28;20283;-32
2023/10/26 01:24:39;;;;;;;1.30;0.70;;;10.20;99.90;;;;;;4977053;28;20274;-32
2023/10/26 01:27:06;;;;;;;1.30;0.80;;;10.20;99.90;;;;;;4976677;28;20262;-32
2023/10/26 01:29:32;;;;;;;1.23;0.70;;;10.20;99.90;;;;;;4976605;28;20193;-32
2023/10/26 01:31:58;;;;;;;2.20;0.90;;;10.20;99.90;;;;;;5002985;28;20288;-32
2023/10/26 01:34:24;;;;;;;1.20;0.70;;;10.10;99.90;;;;;;4981062;28;20193;-32
2023/10/26 01:36:51;;;;;;;2.17;0.80;;;10.10;99.90;;;;;;4997058;28;20693;-32
2023/10/26 01:39:18;;;;;;;1.00;0.60;;;10.00;99.90;;;;;;4980919;28;20183;-32
2023/10/26 01:41:46;;;;;;;1.73;0.80;;;10.00;99.90;;;;;;4980406;28;20260;-32
2023/10/26 01:44:12;;;;;;;1.07;0.70;;;10.00;99.90;;;;;;4980982;28;20189;-31
2023/10/26 01:46:38;;;;;;;2.50;0.70;;;10.00;99.90;;;;;;4980875;28;20214;-31
2023/10/26 01:49:04;;;;;;;1.10;0.60;;;9.90;99.90;;;;;;4996360;28;20183;-32
2023/10/26 01:51:30;;;;;;;0.83;0.60;;;9.90;99.90;;;;;;4977248;28;20195;-32
2023/10/26 01:53:56;;;;;;;3.17;0.70;;;9.90;99.90;;;;;;4980122;28;20192;-32
2023/10/26 01:56:22;;;;;;;3.17;0.90;;;9.90;99.90;;;;;;4980244;28;20251;-31
2023/10/26 01:58:48;;;;;;;2.30;0.90;;;9.90;99.90;;;;;;4980475;28;20251;-33
2023/10/26 02:01:14;;;;;;;2.43;0.80;;;9.80;99.90;;;;;;4979480;28;20207;-34
2023/10/26 02:03:40;;;;;;;2.40;1.00;;;9.80;99.90;;;;;;4976901;28;20186;-33
2023/10/26 02:06:06;;;;;;;1.30;0.80;;;9.70;99.90;;;;;;4978978;28;20231;-34
2023/10/26 02:08:33;;;;;;;1.50;1.20;;;9.70;99.90;;;;;;4980210;28;20212;-33
2023/10/26 02:10:59;;;;;;;3.03;0.80;;;9.60;99.90;;;;;;4992730;28;20271;-33
2023/10/26 02:13:25;;;;;;;0.80;0.77;;;9.60;99.90;;;;;;4980299;28;20317;-33
2023/10/26 02:15:51;;;;;;;3.33;0.80;;;9.60;99.90;;;;;;4979933;28;20215;-33
2023/10/26 02:18:16;;;;;;;0.80;0.70;;;9.60;99.90;;;;;;4976697;28;20185;-33
2023/10/26 02:20:42;;;;;;;1.93;0.80;;;9.60;99.90;;;;;;4976400;28;20183;-33
2023/10/26 02:23:08;;;;;;;0.73;0.70;;;9.60;99.90;;;;;;4979239;28;20257;-33
2023/10/26 02:25:34;;;;;;;1.70;1.00;;;9.50;99.90;;;;;;4987021;28;20301;-33
2023/10/26 02:28:00;;;;;;;0.63;0.60;;;9.50;99.90;;;;;;4975540;28;20173;-33
2023/10/26 02:30:26;;;;;;;1.37;0.57;;;9.50;99.90;;;;;;4985464;28;20641;-33
2023/10/26 02:32:51;;;;;;;1.10;0.70;;;9.50;99.90;;;;;;4976757;28;20200;-33
2023/10/26 02:35:20;;;;;;;1.07;0.70;;;9.40;99.90;;;;;;4995795;28;20177;-33
2023/10/26 02:37:47;;;;;;;1.80;0.70;;;9.40;99.90;;;;;;4976468;28;20181;-33
2023/10/26 02:40:13;;;;;;;1.53;0.70;;;9.30;99.90;;;;;;4989054;28;20185;-33
2023/10/26 02:42:39;;;;;;;1.60;0.70;;;9.30;99.90;;;;;;4979313;28;20222;-33
2023/10/26 02:45:09;;;;;;;2.27;0.80;;;9.30;99.90;;;;;;4979678;28;20185;-33
2023/10/26 02:47:37;;;;;;;1.37;0.70;;;9.30;99.90;;;;;;4976173;28;20269;-33
2023/10/26 02:50:04;;;;;;;1.43;0.60;;;9.30;99.90;;;;;;4994943;28;20184;-33
2023/10/26 02:52:30;;;;;;;1.33;0.70;;;9.30;99.90;;;;;;4989371;28;20665;-33
2023/10/26 02:54:56;;;;;;;1.33;0.80;;;9.30;99.90;;;;;;4960481;28;20203;-33
2023/10/26 02:57:22;;;;;;;0.70;0.70;;;9.20;99.90;;;;;;4978208;28;20185;-33
2023/10/26 02:59:48;;;;;;;3.03;0.87;;;9.30;99.90;;;;;;4995625;28;20219;-33
2023/10/26 03:02:13;;;;;;;1.23;0.70;;;9.30;99.90;;;;;;4995594;28;20191;-33
2023/10/26 03:04:46;;;;;;;2.20;0.73;;;9.30;99.90;;;;;;4987111;28;20166;-32
2023/10/26 03:07:22;;;;;;;1.83;0.60;;;9.20;99.90;;;;;;5009659;28;20227;-33
2023/10/26 03:09:51;;;;;;;1.07;0.67;;;9.20;99.90;;;;;;4975845;28;20203;-33
2023/10/26 03:12:21;;;;;;;1.20;0.63;;;9.20;99.90;;;;;;4996724;28;20286;-32
2023/10/26 03:14:46;;;;;;;1.83;0.60;;;9.20;99.90;;;;;;4995302;28;20262;-32
2023/10/26 03:17:15;;;;;;;1.47;0.60;;;9.20;99.90;;;;;;4979144;28;20183;-32
2023/10/26 03:19:44;;;;;;;2.20;0.80;;;9.20;99.90;;;;;;4979014;28;20180;-32
2023/10/26 03:22:11;;;;;;;0.77;0.50;;;9.10;99.90;;;;;;5041096;23;20235;-31
2023/10/26 03:24:37;;;;;;;2.83;0.70;;;9.10;99.90;;;;;;5014892;28;20183;-30
2023/10/26 03:27:04;;;;;;;0.80;0.60;;;9.10;99.90;;;;;;4997076;28;20207;-30
2023/10/26 03:29:29;;;;;;;1.23;0.77;;;9.10;99.90;;;;;;5022468;28;20174;-30
2023/10/26 03:31:56;;;;;;;0.60;0.60;;;9.10;99.90;;;;;;5056852;28;20202;-31
2023/10/26 03:34:21;;;;;;;0.70;0.60;;;9.10;99.90;;;;;;5031131;28;20178;-30
2023/10/26 03:36:47;;;;;;;1.80;0.70;;;9.10;99.90;;;;;;5030509;28;20289;-31
2023/10/26 03:39:14;;;;;;;2.70;1.00;;;9.10;99.90;;;;;;5024900;28;20194;-29
2023/10/26 03:41:40;;;;;;;9.27;5.57;;;9.10;99.90;;;;;;5013710;28;20204;-30
2023/10/26 03:44:08;;;;;;;3.33;1.27;;;9.00;99.90;;;;;;5026742;28;20197;-30
2023/10/26 03:46:34;;;;;;;10.17;5.70;;;9.00;99.90;;;;;;5026478;28;20245;-30
2023/10/26 03:48:59;;;;;;;6.17;4.13;;;8.90;99.90;;;;;;5030686;28;20214;-30
2023/10/26 03:51:25;;;;;;;3.93;2.70;;;8.90;99.90;;;;;;5028459;28;20202;-31
2023/10/26 03:53:51;;;;;;;1.70;1.20;;;9.00;99.90;;;;;;5017381;28;20185;-30
2023/10/26 03:56:17;;;;;;;1.20;1.10;;;9.00;99.90;;;;;;5014053;28;20186;-30
2023/10/26 03:58:43;;;;;;;1.53;1.13;;;9.00;99.90;;;;;;5020929;28;20179;-29
2023/10/26 04:01:09;;;;;;;1.10;0.97;;;9.00;99.90;;;;;;5018484;28;20257;-30
2023/10/26 04:03:35;;;;;;;1.67;1.00;;;9.10;99.90;;;;;;5012628;28;20195;-30
2023/10/26 04:06:01;;;;;;;0.83;0.77;;;9.10;99.90;;;;;;5017508;28;20207;-30
2023/10/26 04:08:27;;;;;;;2.43;1.17;;;9.10;99.90;;;;;;5009252;28;20179;-30
2023/10/26 04:10:52;;;;;;;2.43;0.90;;;9.10;99.90;;;;;;5022219;28;20178;-30
2023/10/26 04:13:18;;;;;;;1.70;1.00;;;9.20;99.90;;;;;;5040736;28;20251;-30
2023/10/26 04:15:44;;;;;;;1.73;1.20;;;9.20;99.90;;;;;;5030253;28;20197;-30
2023/10/26 04:18:10;;;;;;;2.80;1.73;;;9.20;99.90;;;;;;5030348;28;20189;-30
2023/10/26 04:20:36;;;;;;;3.97;2.00;;;9.20;99.90;;;;;;5046457;28;20191;-30
2023/10/26 04:23:03;;;;;;;3.03;1.50;;;9.20;99.90;;;;;;5023061;28;20215;-30
2023/10/26 04:25:29;;;;;;;2.40;1.20;;;9.20;99.90;;;;;;5008772;28;20203;-30
2023/10/26 04:27:55;;;;;;;2.87;1.40;;;9.20;99.90;;;;;;5010677;28;20187;-30
2023/10/26 04:30:21;;;;;;;1.60;1.23;;;9.20;99.90;;;;;;5010321;28;20201;-30
2023/10/26 04:32:47;;;;;;;1.47;1.23;;;9.10;99.90;;;;;;5010486;28;20202;-30
2023/10/26 04:35:14;;;;;;;2.97;1.40;;;9.10;99.90;;;;;;5010171;28;20278;-29
2023/10/26 04:37:40;;;;;;;2.47;1.70;;;9.10;99.90;;;;;;5012285;28;20281;-29
2023/10/26 04:40:06;;;;;;;4.60;1.67;;;9.10;99.90;;;;;;5009258;28;20183;-29
2023/10/26 04:42:32;;;;;;;1.43;1.20;;;9.00;99.90;;;;;;5012335;28;20209;-30
2023/10/26 04:44:58;;;;;;;2.13;1.33;;;9.10;99.90;;;;;;5027579;28;20266;-29
2023/10/26 04:47:24;;;;;;;2.50;1.30;;;9.00;99.90;;;;;;5011177;28;20241;-30
2023/10/26 04:49:50;;;;;;;1.77;1.30;;;9.00;99.90;;;;;;5010350;28;20171;-29
2023/10/26 04:52:18;;;;;;;2.53;1.43;;;9.00;99.90;;;;;;5010259;28;20223;-30
2023/10/26 04:54:44;;;;;;;2.30;1.63;;;9.00;99.90;;;;;;5019349;28;20175;-30
2023/10/26 04:57:10;;;;;;;2.13;1.80;;;9.00;99.90;;;;;;5041722;28;20192;-31
2023/10/26 04:59:36;;;;;;;3.10;1.60;;;9.00;99.90;;;;;;5013050;28;20213;-30
2023/10/26 05:02:02;;;;;;;3.10;1.90;;;9.00;99.90;;;;;;5021082;28;20221;-29
2023/10/26 05:04:27;;;;;;;3.60;1.70;;;9.10;99.90;;;;;;5010884;28;20188;-30
2023/10/26 05:06:53;;;;;;;4.23;1.67;;;9.10;99.90;;;;;;5014833;28;20211;-29
2023/10/26 05:09:19;;;;;;;2.03;1.50;;;9.10;99.90;;;;;;5014136;28;20198;-30
2023/10/26 05:11:45;;;;;;;1.50;1.40;;;9.10;99.90;;;;;;5031750;28;20209;-30
2023/10/26 05:14:11;;;;;;;1.40;1.10;;;9.10;99.90;;;;;;5033521;28;20179;-29
2023/10/26 05:16:37;;;;;;;2.20;1.40;;;9.10;99.90;;;;;;5033578;28;20306;-29
2023/10/26 05:19:03;;;;;;;3.07;1.30;;;9.10;99.90;;;;;;5033422;28;20234;-29
2023/10/26 05:21:29;;;;;;;2.10;1.50;;;9.10;99.90;;;;;;5033427;28;20183;-28
2023/10/26 05:23:54;;;;;;;1.83;1.53;;;9.00;99.90;;;;;;5021093;28;20198;-29
2023/10/26 05:26:20;;;;;;;2.27;2.00;;;9.10;99.90;;;;;;5016930;28;20678;-29
2023/10/26 05:28:47;;;;;;;2.60;1.53;;;9.10;99.90;;;;;;5032823;28;20180;-29
2023/10/26 05:31:12;;;;;;;5.50;2.20;;;9.10;99.90;;;;;;5032993;28;20266;-30
2023/10/26 05:33:38;;;;;;;2.83;1.67;;;9.10;99.90;;;;;;5033387;28;20266;-29
2023/10/26 05:36:04;;;;;;;1.87;1.30;;;9.20;99.90;;;;;;5033386;28;20179;-29
2023/10/26 05:38:30;;;;;;;3.57;1.50;;;9.20;99.90;;;;;;5031698;28;20183;-29
2023/10/26 05:40:56;;;;;;;1.97;1.47;;;9.20;99.90;;;;;;5013983;28;20183;-29
2023/10/26 05:43:23;;;;;;;3.57;1.67;;;9.20;99.90;;;;;;5013383;28;20207;-29
2023/10/26 05:45:49;;;;;;;2.20;1.53;;;9.30;99.90;;;;;;5027045;28;20206;-30
2023/10/26 05:48:16;;;;;;;1.73;1.30;;;9.30;99.90;;;;;;5032457;28;20186;-29
2023/10/26 05:50:43;;;;;;;2.23;1.70;;;9.30;99.90;;;;;;5014844;28;20191;-28
2023/10/26 05:53:12;;;;;;;1.70;1.60;;;9.30;99.90;;;;;;5014023;28;20204;-29
2023/10/26 05:55:39;;;;;;;4.70;2.33;;;9.40;99.90;;;;;;5013129;28;20196;-28
2023/10/26 05:58:05;;;;;;;2.33;1.97;;;9.40;99.90;;;;;;5013442;28;20179;-28
2023/10/26 06:00:31;;;;;;;3.90;1.97;;;9.40;99.90;;;;;;5012973;28;20179;-29
2023/10/26 06:02:59;;;;;;;3.50;2.13;;;9.40;99.90;;;;;;5012760;28;20290;-28
2023/10/26 06:05:24;;;;;;;4.87;3.03;;;9.40;99.90;;;;;;5012463;28;20184;-28
2023/10/26 06:07:50;;;;;;;6.70;3.00;;;9.30;99.90;;;;;;5012908;28;20183;-28
2023/10/26 06:10:16;;;;;;;4.63;1.80;;;9.30;99.90;;;;;;5025278;28;20182;-28
2023/10/26 06:12:42;;;;;;;2.00;1.80;;;9.30;99.90;;;;;;5018762;28;20222;-28
2023/10/26 06:15:08;;;;;;;3.10;1.97;;;9.30;99.90;;;;;;5011310;28;20180;-30
2023/10/26 06:17:34;;;;;;;2.90;2.23;;;9.30;99.90;;;;;;5012096;28;20221;-29
2023/10/26 06:20:00;;;;;;;4.27;2.37;;;9.30;99.90;;;;;;5029202;28;20179;-30
2023/10/26 06:22:25;;;;;;;2.20;2.00;;;9.30;99.90;;;;;;5012532;28;20214;-29
2023/10/26 06:24:51;;;;;;;2.40;1.67;;;9.30;99.90;;;;;;5028759;28;20187;-28
2023/10/26 06:27:17;;;;;;;2.07;1.40;;;9.40;99.90;;;;;;5012483;28;20206;-29
2023/10/26 06:29:44;;;;;;;1.33;1.23;;;9.40;99.90;;;;;;5012376;28;20222;-31
2023/10/26 06:32:11;;;;;;;2.07;1.23;;;9.40;99.90;;;;;;5029319;28;20286;-30
2023/10/26 06:34:37;;;;;;;4.57;1.77;;;9.50;99.90;;;;;;5012229;28;20184;-30
2023/10/26 06:37:03;;;;;;;2.57;1.80;;;9.50;99.90;;;;;;4995471;28;20190;-29
2023/10/26 06:39:29;;;;;;;2.63;1.90;;;9.50;99.90;;;;;;5014411;28;20240;-30
2023/10/26 06:41:56;;;;;;;3.73;2.20;;;9.60;99.90;;;;;;5016774;28;20294;-29
2023/10/26 06:44:23;;;;;;;3.20;2.40;;;9.60;99.90;;;;;;5012438;28;20184;-30
2023/10/26 06:46:49;;;;;;;2.53;2.13;;;9.60;99.90;;;;;;5028312;28;20213;-30
2023/10/26 06:49:15;;;;;;;2.87;2.50;;;9.70;99.90;;;;;;5011952;28;20186;-28
2023/10/26 06:51:41;;;;;;;5.57;1.87;;;9.70;99.90;;;;;;5028569;28;20236;-28
2023/10/26 06:54:06;;;;;;;2.07;1.77;;;9.70;99.90;;;;;;5028673;28;20190;-28
2023/10/26 06:56:32;;;;;;;3.97;1.50;;;9.70;99.90;;;;;;5011093;28;20238;-29
2023/10/26 06:58:58;;;;;;;3.33;1.20;;;9.70;99.90;;;;;;5012513;28;20206;-28
2023/10/26 07:01:24;;;;;;;2.70;1.30;;;9.70;99.90;;;;;;5011775;28;20184;-29
2023/10/26 07:03:50;;;;;;;3.33;1.23;;;9.70;99.90;;;;;;5012054;28;20234;-29
2023/10/26 07:06:16;;;;;;;2.73;1.33;;;9.70;99.90;;;;;;5011538;28;20218;-29
2023/10/26 07:08:43;;;;;;;1.90;1.40;;;9.70;99.90;;;;;;5011524;28;20179;-29
2023/10/26 07:11:09;;;;;;;1.50;1.40;;;9.70;99.90;;;;;;5032690;28;20213;-27
2023/10/26 07:13:35;;;;;;;2.53;1.80;;;9.80;99.90;;;;;;5032501;28;20235;-28
2023/10/26 07:16:02;;;;;;;1.83;1.27;;;9.80;99.90;;;;;;5031595;28;20178;-27
2023/10/26 07:18:29;;;;;;;1.83;1.43;;;9.90;99.90;;;;;;5031113;28;20176;-29
2023/10/26 07:20:54;;;;;;;3.20;1.70;;;9.90;99.90;;;;;;5047865;28;20654;-28
2023/10/26 07:23:20;;;;;;;1.93;1.50;;;9.90;99.90;;;;;;5031799;28;20219;-29
2023/10/26 07:25:46;;;;;;;2.10;1.93;;;10.00;99.90;;;;;;5028176;28;20207;-28
2023/10/26 07:28:12;;;;;;;3.27;1.60;;;10.00;99.90;;;;;;5010741;28;20179;-28
2023/10/26 07:30:41;;;;;;;1.40;1.30;;;10.00;99.90;;;;;;5026728;28;20185;-28
2023/10/26 07:33:07;;;;;;;4.23;1.97;;;10.10;99.90;;;;;;5026667;28;20265;-28
2023/10/26 07:35:42;;;;;;;2.73;2.17;;;10.10;99.90;;;;;;5010525;28;20180;-29
2023/10/26 07:38:09;;;;;;;7.17;3.50;;;10.10;99.90;;;;;;5027164;28;20321;-28
2023/10/26 07:40:37;;;;;;;6.17;3.47;;;10.10;99.90;;;;;;5012534;28;20195;-27
2023/10/26 07:43:02;;;;;;;8.10;3.33;;;10.20;99.90;;;;;;5029952;28;20231;-29
2023/10/26 07:45:28;;;;;;;9.40;4.73;;;10.20;99.90;;;;;;5013293;28;20221;-28
2023/10/26 07:47:58;;;;;;;7.57;5.80;;;10.20;99.90;;;;;;5013559;28;20180;-28
2023/10/26 07:50:24;;;;;;;12.77;8.83;;;10.20;99.90;;;;;;5013241;28;20291;-29
2023/10/26 07:52:50;;;;;;;11.40;8.23;;;10.20;99.90;;;;;;5029860;28;20292;-28
2023/10/26 07:55:17;;;;;;;12.23;7.90;;;10.20;99.90;;;;;;5013566;28;20193;-28
2023/10/26 07:57:43;;;;;;;10.17;8.23;;;10.30;99.90;;;;;;5046615;28;20172;-29
2023/10/26 08:00:11;;;;;;;11.53;6.17;;;10.30;99.90;;;;;;5029480;28;20274;-28
2023/10/26 08:02:40;;;;;;;8.73;6.10;;;10.30;99.90;;;;;;5029750;28;20199;-29
2023/10/26 08:05:07;;;;;;;6.43;5.40;;;10.20;99.90;;;;;;5031364;28;20204;-28
2023/10/26 08:07:33;;;;;;;5.67;4.93;;;10.30;99.90;;;;;;5030055;28;20242;-28
2023/10/26 08:09:58;;;;;;;5.53;4.30;;;10.30;99.90;;;;;;5017415;28;20242;-28
2023/10/26 08:12:24;;;;;;;5.77;3.90;;;10.30;99.90;;;;;;5009616;28;20200;-28
2023/10/26 08:14:55;;;;;;;5.87;3.90;;;10.30;99.90;;;;;;5009918;28;20185;-30
2023/10/26 08:17:21;;;;;;;6.67;4.70;;;10.40;99.90;;;;;;5026321;28;20185;-30
2023/10/26 08:19:54;;;;;;;5.60;4.47;;;10.40;99.90;;;;;;5026084;28;20185;-30
2023/10/26 08:22:21;;;;;;;6.57;5.03;;;10.40;99.90;;;;;;4978758;28;1208265;-29
2023/10/26 08:24:50;;;;;;;9.20;7.80;;;10.50;99.90;;;;;;5002478;28;20225;-30
2023/10/26 08:27:16;;;;;;;8.83;6.10;;;10.50;99.90;;;;;;5026053;28;20201;-31
2023/10/26 08:29:43;;;;;;;6.20;5.20;;;10.50;99.90;;;;;;5011497;28;20181;-31
2023/10/26 08:32:09;;;;;;;5.73;5.00;;;10.60;99.90;;;;;;5012051;28;20287;-30
2023/10/26 08:34:34;;;;;;;8.13;5.80;;;10.60;99.90;;;;;;5010466;28;20254;-30
2023/10/26 08:37:01;;;;;;;7.43;5.57;;;10.60;99.90;;;;;;5010352;28;20188;-31
2023/10/26 08:39:26;;;;;;;7.30;5.60;;;10.70;99.90;;;;;;5011062;28;20229;-30
2023/10/26 08:41:57;;;;;;;8.73;6.97;;;10.70;99.90;;;;;;5033692;28;20240;-30
2023/10/26 08:44:26;;;;;;;9.80;7.97;;;10.70;99.90;;;;;;5009946;28;20186;-31
2023/10/26 08:46:58;;;;;;;9.17;7.70;;;10.80;99.90;;;;;;5010384;28;20210;-31
2023/10/26 08:49:27;;;;;;;8.73;5.73;;;10.80;99.90;;;;;;5010081;28;20234;-31
2023/10/26 08:51:54;;;;;;;4.67;3.30;;;10.80;99.90;;;;;;5010061;28;20214;-30
2023/10/26 08:54:20;;;;;;;3.90;2.57;;;10.80;99.90;;;;;;5010285;28;20316;-31
2023/10/26 08:56:45;;;;;;;3.73;2.10;;;10.80;99.90;;;;;;5016636;28;20269;-31
2023/10/26 08:59:11;;;;;;;4.83;2.23;;;10.80;99.90;;;;;;5030708;28;20247;-30
2023/10/26 09:01:37;;;;;;;4.27;2.10;;;10.80;99.90;;;;;;5029687;28;20205;-31
2023/10/26 09:04:11;;;;;;;5.07;2.47;;;10.80;99.90;;;;;;5029232;28;20182;-31
2023/10/26 09:06:49;;;;;;;2.73;2.30;;;10.80;99.90;;;;;;5029431;28;20215;-30
2023/10/26 09:09:16;;;;;;;3.27;2.20;;;10.80;99.90;;;;;;5023999;28;20182;-30
2023/10/26 09:11:48;;;;;;;3.27;2.30;;;10.70;99.90;;;;;;5012451;28;20204;-31
2023/10/26 09:14:18;;;;;;;3.80;2.10;;;10.70;99.90;;;;;;5012803;28;20177;-30
2023/10/26 09:16:45;;;;;;;2.47;2.20;;;10.80;99.90;;;;;;5011894;28;20191;-30
2023/10/26 09:19:12;;;;;;;3.30;2.00;;;10.80;99.90;;;;;;5012426;28;20213;-31
2023/10/26 09:21:52;;;;;;;7.27;4.30;;;10.90;99.90;;;;;;5037134;23;20240;-32
2023/10/26 09:24:24;;;;;;;4.47;3.70;;;10.90;99.90;;;;;;5025075;28;20187;-31
2023/10/26 09:26:51;;;;;;;5.33;3.97;;;10.80;99.90;;;;;;5010032;28;20310;-32
2023/10/26 09:29:18;;;;;;;5.73;4.03;;;10.80;99.90;;;;;;4993589;28;20185;-31
2023/10/26 09:31:54;;;;;;;5.87;3.70;;;10.90;99.90;;;;;;5008890;28;20179;-31
2023/10/26 09:34:24;;;;;;;4.33;2.93;;;10.90;99.90;;;;;;4990072;28;20182;-32
2023/10/26 09:37:07;;;;;;;4.40;3.20;;;10.90;99.90;;;;;;4989992;28;20214;-31
2023/10/26 09:39:35;;;;;;;3.83;2.83;;;10.90;99.90;;;;;;4988266;28;20197;-32
2023/10/26 09:42:02;;;;;;;4.50;2.80;;;10.90;99.90;;;;;;4978673;28;20268;-32
2023/10/26 09:44:29;;;;;;;5.40;3.43;;;10.90;99.90;;;;;;4954745;28;20182;-32
2023/10/26 09:46:56;;;;;;;7.43;5.90;;;10.90;99.90;;;;;;4970636;28;20207;-31
2023/10/26 09:49:23;;;;;;;10.03;7.70;;;10.90;99.90;;;;;;4955726;28;20241;-32
2023/10/26 09:51:50;;;;;;;4.73;3.23;;;11.00;99.90;;;;;;4958489;28;20249;-32
2023/10/26 09:54:21;;;;;;;3.97;2.93;;;11.00;99.90;;;;;;4973944;28;20211;-33
2023/10/26 09:56:51;;;;;;;4.07;2.90;;;11.00;99.90;;;;;;4967859;28;20240;-33
2023/10/26 09:59:17;;;;;;;3.50;2.53;;;11.10;99.90;;;;;;5009914;28;20217;-32
2023/10/26 10:01:45;;;;;;;3.17;2.80;;;11.10;99.90;;;;;;4994507;28;20294;-32
2023/10/26 10:04:11;;;;;;;3.37;2.70;;;11.20;99.90;;;;;;5009779;28;20244;-32
2023/10/26 10:06:53;;;;;;;4.13;3.00;;;11.30;99.90;;;;;;5009852;28;20314;-32
2023/10/26 10:09:19;;;;;;;3.43;2.97;;;11.40;99.90;;;;;;5009262;28;20186;-32
2023/10/26 10:11:46;;;;;;;3.20;2.90;;;11.40;99.90;;;;;;5001535;28;20183;-32
2023/10/26 10:14:47;;;;;;;4.20;2.90;;;11.50;99.90;;;;;;4977248;28;20191;-32
2023/10/26 10:17:13;;;;;;;3.43;2.80;;;11.60;99.90;;;;;;4988387;28;20198;-32
2023/10/26 10:19:48;;;;;;;3.63;2.50;;;11.70;99.90;;;;;;4993165;28;20183;-32
2023/10/26 10:22:38;;;;;;;7.10;3.67;;;11.70;99.90;;;;;;4992699;28;20301;-32
2023/10/26 10:25:09;;;;;;;4.40;3.67;;;11.80;99.90;;;;;;4993261;28;20271;-32
2023/10/26 10:27:34;;;;;;;4.90;3.87;;;11.80;99.90;;;;;;4993207;28;20321;-32
2023/10/26 10:30:07;;;;;;;4.17;3.50;;;11.90;99.90;;;;;;4991980;28;20282;-32
2023/10/26 10:32:42;;;;;;;3.53;2.90;;;11.90;99.90;;;;;;4993278;28;20203;-31
2023/10/26 10:35:09;;;;;;;3.70;3.30;;;11.90;99.90;;;;;;4993111;28;20257;-32
2023/10/26 10:37:37;;;;;;;4.17;3.60;;;11.90;99.90;;;;;;4992827;28;20191;-32
2023/10/26 10:40:16;;;;;;;3.23;2.83;;;11.90;99.90;;;;;;4989448;28;20192;-32
2023/10/26 10:42:49;;;;;;;3.40;3.10;;;12.00;99.90;;;;;;4996679;28;20358;-32
2023/10/26 10:45:19;;;;;;;4.57;3.60;;;12.10;99.90;;;;;;4957572;28;20212;-32
2023/10/26 10:47:49;;;;;;;4.00;3.60;;;12.20;99.90;;;;;;4973376;28;20189;-32
2023/10/26 10:50:18;;;;;;;4.43;3.23;;;12.30;99.90;;;;;;4956250;28;20185;-32
2023/10/26 10:52:47;;;;;;;4.13;3.10;;;12.30;99.90;;;;;;4973210;28;20259;-32
2023/10/26 10:55:24;;;;;;;6.00;3.97;;;12.40;99.90;;;;;;4956979;28;20189;-32
2023/10/26 10:57:58;;;;;;;4.20;3.80;;;12.40;99.90;;;;;;4963402;28;20261;-32
2023/10/26 11:00:26;;;;;;;3.87;3.50;;;12.50;99.90;;;;;;4981841;28;20188;-32
2023/10/26 11:02:58;;;;;;;4.83;3.90;;;12.50;99.90;;;;;;4984758;28;20201;-32
2023/10/26 11:05:39;;;;;;;4.67;3.30;;;12.60;99.90;;;;;;4978745;28;20271;-32
2023/10/26 11:08:06;;;;;;;4.27;3.43;;;12.70;99.90;;;;;;4980197;28;20188;-32
2023/10/26 11:10:32;;;;;;;3.40;3.00;;;12.70;99.90;;;;;;5000558;28;20184;-32
2023/10/26 11:12:58;;;;;;;5.03;3.43;;;12.70;99.90;;;;;;5010624;28;20208;-33
2023/10/26 11:15:35;;;;;;;5.47;2.87;;;12.80;99.90;;;;;;4978187;28;20231;-32
2023/10/26 11:18:02;;;;;;;5.73;4.77;;;12.80;99.90;;;;;;4987600;28;20180;-32
2023/10/26 11:20:37;;;;;;;3.80;3.03;;;12.80;99.90;;;;;;4994321;28;20183;-32
2023/10/26 11:23:05;;;;;;;3.93;3.47;;;12.90;99.90;;;;;;4989483;28;20207;-32
2023/10/26 11:25:32;;;;;;;4.50;3.90;;;12.90;99.90;;;;;;4991080;28;20179;-32
2023/10/26 11:27:58;;;;;;;4.33;3.87;;;13.00;99.90;;;;;;4988722;28;20185;-32
2023/10/26 11:30:24;;;;;;;3.47;3.17;;;13.00;99.90;;;;;;4978647;28;20258;-32
2023/10/26 11:32:50;;;;;;;3.93;3.20;;;13.10;99.90;;;;;;4982244;28;20196;-32
2023/10/26 11:35:16;;;;;;;5.27;4.10;;;13.20;99.90;;;;;;4964928;28;20183;-32
2023/10/26 11:38:02;;;;;;;3.63;3.07;;;13.40;99.90;;;;;;4996088;28;20177;-33
2023/10/26 11:40:30;;;;;;;5.33;3.30;;;13.60;99.90;;;;;;4985639;28;20192;-33
2023/10/26 11:43:02;;;;;;;4.80;2.93;;;13.70;99.90;;;;;;4955926;28;20300;-32
2023/10/26 11:45:29;;;;;;;3.70;2.63;;;14.00;99.90;;;;;;4972009;28;20195;-32
2023/10/26 11:47:57;;;;;;;2.87;2.07;;;14.20;99.90;;;;;;4961474;28;20184;-32
2023/10/26 11:50:25;;;;;;;3.67;1.90;;;14.40;99.90;;;;;;4975555;28;20183;-33
2023/10/26 11:53:02;;;;;;;6.13;1.77;;;14.70;99.90;;;;;;4992733;28;20203;-32
2023/10/26 11:55:31;;;;;;;3.23;1.63;;;15.00;99.90;;;;;;4964015;28;20189;-33
2023/10/26 11:57:58;;;;;;;3.13;1.70;;;15.20;99.90;;;;;;4970230;28;20188;-32
2023/10/26 12:00:26;;;;;;;2.47;1.53;;;15.40;99.90;;;;;;5009122;28;20180;-32
2023/10/26 12:02:56;;;;;;;2.83;1.80;;;15.40;99.90;;;;;;5012144;28;20195;-32
2023/10/26 12:05:23;;;;;;;3.97;2.13;;;15.40;99.90;;;;;;4993139;28;20262;-32
2023/10/26 12:07:50;;;;;;;5.20;2.33;;;15.40;99.90;;;;;;4967856;28;20180;-32
2023/10/26 12:10:18;;;;;;;4.33;1.87;;;15.40;99.90;;;;;;4982705;28;20188;-32
2023/10/26 12:12:45;;;;;;;5.27;1.97;;;15.40;99.90;;;;;;5011737;28;20214;-33
2023/10/26 12:15:11;;;;;;;11.00;5.35;;;15.40;99.90;;;;;;4990534;28;20180;-32
2023/10/26 12:17:37;;;;;;;7.47;3.20;;;15.40;99.90;;;;;;4974706;28;20210;-32
2023/10/26 12:20:05;;;;;;;7.57;1.87;;;15.40;99.90;;;;;;4989935;28;20185;-32
2023/10/26 12:22:31;;;;;;;6.90;1.53;;;15.40;99.90;;;;;;4972719;28;20250;-32
2023/10/26 12:24:56;;;;;;;7.95;2.13;;;15.40;99.90;;;;;;5000170;28;20204;-33
2023/10/26 12:27:22;;;;;;;6.40;2.30;;;15.50;99.90;;;;;;4985259;28;20275;-32
2023/10/26 12:29:48;;;;;;;7.03;1.63;;;15.50;99.90;;;;;;4971268;28;20188;-32
2023/10/26 12:32:15;;;;;;;7.50;1.92;;;15.60;99.90;;;;;;4971470;28;20295;-32
2023/10/26 12:34:41;;;;;;;6.15;1.67;;;15.70;99.90;;;;;;4990575;28;20195;-32
2023/10/26 12:37:07;;;;;;;5.38;1.98;;;15.70;99.90;;;;;;4970929;28;20212;-32
2023/10/26 12:39:33;;;;;;;8.85;2.15;;;15.70;99.90;;;;;;4990278;28;20203;-32
2023/10/26 12:41:59;;;;;;;7.45;2.42;;;15.80;99.90;;;;;;4972697;28;20212;-32
2023/10/26 12:44:26;;;;;;;6.78;2.28;;;15.80;99.90;;;;;;4980101;28;20196;-32
2023/10/26 12:46:53;;;;;;;6.00;2.10;;;15.90;99.90;;;;;;4990173;28;20204;-32
2023/10/26 12:49:23;;;;;;;4.43;1.75;;;16.00;99.90;;;;;;4989866;28;20195;-32
2023/10/26 12:51:49;;;;;;;7.05;2.35;;;16.00;99.90;;;;;;4990259;28;20192;-35